WBU weather

Boulder Municipal Airport
Boulder, Colorado, United States

Public forecast

Using degrees Fahrenheit for public forecast. Weather courtesy of forecast.io.

METAR (pilot weather report)

Retrieved 2019/04/24 08:12 UTC (1 hour ago):

KBDU 240812Z AUTO 00000KT 10SM CLR 10/02 A2999 RMK AO2

TAF (pilot weather forecast)

Closest forecast is Rocky Mountain Metropolitan Airport, 9.3 nm (17.2 km) SSE. Retrieved 2019/04/24 06:33 UTC (3 hours ago):

TAF KBJC 240530Z 2406/2506 27006KT P6SM FEW100 FEW220 FM241600 34010KT P6SM SKC FM241800 05007KT P6SM SCT120 FM250000 33005KT P6SM SCT070 BKN100